createdAt,value
2022-11-09T00:01:03.104Z,100028.11
2022-11-09T00:03:30.870Z,100028.52
2022-11-09T00:05:59.505Z,100019.46
2022-11-09T00:08:27.969Z,100020.42
2022-11-09T00:11:00.231Z,100022.13
2022-11-09T00:13:27.832Z,100020.27
2022-11-09T00:15:59.076Z,100023.20
2022-11-09T00:18:26.764Z,100020.95
2022-11-09T00:20:54.853Z,100017.40
2022-11-09T00:23:23.290Z,100022.97
2022-11-09T00:25:51.082Z,100017.45
2022-11-09T00:28:18.814Z,100012.46
2022-11-09T00:30:48.319Z,100014.02
2022-11-09T00:33:17.446Z,100008.48
2022-11-09T00:35:45.580Z,100009.38
2022-11-09T00:38:13.728Z,100012.77
2022-11-09T00:40:41.450Z,100016.18
2022-11-09T00:43:10.071Z,100015.07
2022-11-09T00:45:37.874Z,100013.75
2022-11-09T00:48:05.726Z,100014.81
2022-11-09T00:50:33.916Z,100014.14
2022-11-09T00:53:01.704Z,100012.69
2022-11-09T00:55:29.689Z,100005.73
2022-11-09T00:57:57.553Z,100009.91
2022-11-09T01:00:25.600Z,100010.98
2022-11-09T01:02:54.320Z,100008.42
2022-11-09T01:05:22.145Z,100014.00
2022-11-09T01:07:50.490Z,100007.10
2022-11-09T01:10:18.262Z,100008.19
2022-11-09T01:12:47.598Z,100009.45
2022-11-09T01:15:16.260Z,100010.80
2022-11-09T01:17:44.235Z,100011.83
2022-11-09T01:20:12.341Z,100008.42
2022-11-09T01:22:40.150Z,100004.47
2022-11-09T01:25:08.580Z,100005.91
2022-11-09T01:27:36.392Z,100006.01
2022-11-09T01:30:07.520Z,100003.85
2022-11-09T01:32:35.954Z,100005.98
2022-11-09T01:35:06.776Z,100004.51
2022-11-09T01:37:34.535Z,99997.33
2022-11-09T01:40:02.542Z,100000.20
2022-11-09T01:42:36.224Z,99999.73
2022-11-09T01:45:19.534Z,99993.31
2022-11-09T01:48:13.554Z,99996.00
2022-11-09T01:50:55.422Z,99992.85
2022-11-09T01:53:28.449Z,99990.89
2022-11-09T01:55:58.443Z,99990.16
2022-11-09T01:58:31.045Z,99986.09
2022-11-09T02:01:00.946Z,99981.48
2022-11-09T02:03:33.226Z,99984.25
2022-11-09T02:06:04.846Z,99983.43
2022-11-09T02:08:32.916Z,99983.65
2022-11-09T02:11:03.345Z,99981.69
2022-11-09T02:13:32.375Z,99979.08
2022-11-09T02:16:03.825Z,99983.21
2022-11-09T02:18:33.061Z,99984.48
2022-11-09T02:21:02.905Z,99983.88
2022-11-09T02:23:30.669Z,99985.31
2022-11-09T02:26:10.038Z,99986.05
2022-11-09T02:28:39.325Z,99990.06
2022-11-09T02:31:11.326Z,99984.75
2022-11-09T02:33:52.988Z,99978.64
2022-11-09T02:36:24.298Z,99979.31
2022-11-09T02:38:54.854Z,99988.64
2022-11-09T02:41:23.983Z,99984.91
2022-11-09T02:43:52.874Z,99984.17
2022-11-09T02:46:26.245Z,99987.44
2022-11-09T02:48:54.039Z,99987.77
2022-11-09T02:51:21.782Z,99988.30
2022-11-09T02:53:49.702Z,99985.49
2022-11-09T02:56:17.461Z,99988.74
2022-11-09T02:58:45.435Z,99991.68
2022-11-09T03:01:13.262Z,99989.64
2022-11-09T03:03:41.295Z,99987.98
2022-11-09T03:06:09.611Z,99992.83
2022-11-09T03:08:38.498Z,99991.75
2022-11-09T03:11:06.539Z,99993.33
2022-11-09T03:13:35.117Z,99996.11
2022-11-09T03:16:08.650Z,99996.94
2022-11-09T03:18:40.139Z,99998.88
2022-11-09T03:21:08.955Z,99997.03
2022-11-09T03:23:36.955Z,99995.95
2022-11-09T03:26:04.933Z,100002.93
2022-11-09T03:28:32.835Z,100008.50
2022-11-09T03:31:01.492Z,100012.74
2022-11-09T03:33:32.141Z,100008.11
2022-11-09T03:36:00.581Z,100008.36
2022-11-09T03:38:29.338Z,100002.27
2022-11-09T03:40:59.662Z,100002.49
2022-11-09T03:43:30.827Z,100002.50
2022-11-09T03:45:58.649Z,100000.50
2022-11-09T03:48:26.375Z,100001.84
2022-11-09T03:50:54.132Z,100001.97
2022-11-09T03:53:22.241Z,100000.00
2022-11-09T03:55:50.233Z,99995.91
2022-11-09T03:58:17.998Z,100000.80
2022-11-09T04:00:45.767Z,99992.83
2022-11-09T04:03:13.500Z,99993.67
2022-11-09T04:05:41.375Z,99988.24
2022-11-09T04:08:09.437Z,99992.96
2022-11-09T04:10:37.199Z,99989.30
2022-11-09T04:13:04.938Z,99988.41
2022-11-09T04:15:32.700Z,99981.61
2022-11-09T04:18:02.362Z,99982.12
2022-11-09T04:20:31.390Z,99984.67
2022-11-09T04:23:01.615Z,99977.35
2022-11-09T04:25:32.930Z,99973.88
2022-11-09T04:28:01.511Z,99976.78
2022-11-09T04:30:31.141Z,99977.51
2022-11-09T04:32:59.628Z,99969.73
2022-11-09T04:35:28.962Z,99975.54
2022-11-09T04:38:02.221Z,99973.91
2022-11-09T04:40:32.127Z,99966.38
2022-11-09T04:43:04.375Z,99966.01
2022-11-09T04:45:35.136Z,99970.33
2022-11-09T04:48:04.820Z,99969.83
2022-11-09T04:50:33.428Z,99970.71
2022-11-09T04:53:12.700Z,99969.52
2022-11-09T04:55:40.655Z,99966.36
2022-11-09T04:58:09.016Z,99962.54
2022-11-09T05:00:37.231Z,99961.41
2022-11-09T05:03:06.161Z,99958.13
2022-11-09T05:05:35.167Z,99960.18
2022-11-09T05:08:03.751Z,99961.16
2022-11-09T05:10:31.786Z,99962.52
2022-11-09T05:13:04.671Z,99959.02
2022-11-09T05:15:33.288Z,99959.15
2022-11-09T05:18:01.881Z,99959.78
2022-11-09T05:20:30.598Z,99961.73
2022-11-09T05:23:18.885Z,99957.14
2022-11-09T05:25:47.873Z,99963.48
2022-11-09T05:28:15.894Z,99964.55
2022-11-09T05:30:43.688Z,99963.27
2022-11-09T05:33:11.483Z,99965.09
2022-11-09T05:35:39.185Z,99962.20
2022-11-09T05:38:06.941Z,99962.82
2022-11-09T05:40:34.884Z,99960.22
2022-11-09T05:43:02.610Z,99956.02
2022-11-09T05:45:46.239Z,99955.59
2022-11-09T05:48:16.927Z,99962.14
2022-11-09T05:50:45.133Z,99963.36
2022-11-09T05:53:21.194Z,99963.02
2022-11-09T05:55:49.355Z,99972.04
2022-11-09T05:58:17.099Z,99970.15
2022-11-09T06:00:44.850Z,99968.19
2022-11-09T06:03:12.599Z,99966.47
2022-11-09T06:05:41.087Z,99964.09
2022-11-09T06:08:14.429Z,99962.89
2022-11-09T06:10:42.835Z,99962.52
2022-11-09T06:13:11.110Z,99970.91
2022-11-09T06:15:38.848Z,99974.73
2022-11-09T06:18:06.624Z,99973.46
2022-11-09T06:20:34.543Z,99972.06
2022-11-09T06:23:04.355Z,99976.55
2022-11-09T06:25:33.138Z,99974.54
2022-11-09T06:28:01.672Z,99976.11
2022-11-09T06:30:29.980Z,99976.27
2022-11-09T06:33:01.896Z,99979.20
2022-11-09T06:35:30.175Z,99975.42
2022-11-09T06:37:59.323Z,99973.34
2022-11-09T06:40:27.744Z,99970.82
2022-11-09T06:42:59.377Z,99980.30
2022-11-09T06:45:28.878Z,99982.11
2022-11-09T06:47:58.027Z,99986.02
2022-11-09T06:50:26.895Z,99985.38
2022-11-09T06:53:02.727Z,99980.21
2022-11-09T06:55:31.874Z,99976.77
2022-11-09T06:58:00.138Z,99972.65
2022-11-09T07:00:28.443Z,99968.32
2022-11-09T07:02:56.205Z,99969.71
2022-11-09T07:05:23.961Z,99974.30
2022-11-09T07:07:51.716Z,99984.02
2022-11-09T07:10:19.940Z,99988.52
2022-11-09T07:12:48.147Z,99992.72
2022-11-09T07:15:16.066Z,100002.53
2022-11-09T07:17:43.948Z,100013.95
2022-11-09T07:20:12.026Z,100008.49
2022-11-09T07:22:40.056Z,99988.14
2022-11-09T07:25:09.677Z,99979.05
2022-11-09T07:27:37.573Z,99984.31
2022-11-09T07:30:06.283Z,99987.59
2022-11-09T07:33:07.327Z,99986.29
2022-11-09T07:35:29.363Z,99990.23
2022-11-09T07:38:01.792Z,99989.77
2022-11-09T07:40:30.523Z,99993.11
2022-11-09T07:43:02.541Z,99992.63
2022-11-09T07:45:31.266Z,99994.34
2022-11-09T07:48:02.122Z,99991.67
2022-11-09T07:50:30.942Z,99998.10
2022-11-09T07:53:00.290Z,99994.69
2022-11-09T07:55:29.795Z,99999.98
2022-11-09T07:57:59.101Z,100001.06
2022-11-09T08:00:28.918Z,99992.53
2022-11-09T08:02:57.308Z,99996.44
2022-11-09T08:05:25.386Z,99996.71
2022-11-09T08:07:57.906Z,99997.95
2022-11-09T08:10:26.846Z,99994.01
2022-11-09T08:12:59.740Z,99994.05
2022-11-09T08:15:28.099Z,99984.84
2022-11-09T08:18:00.234Z,99975.77
2022-11-09T08:20:29.242Z,99973.36
2022-11-09T08:23:01.014Z,99973.64
2022-11-09T08:25:33.771Z,99969.81
2022-11-09T08:28:01.927Z,99975.80
2022-11-09T08:30:30.252Z,99984.04
2022-11-09T08:32:59.605Z,99984.92
2022-11-09T08:35:28.036Z,99986.56
2022-11-09T08:37:56.074Z,99984.95
2022-11-09T08:40:25.609Z,99979.86
2022-11-09T08:42:53.901Z,99982.59
2022-11-09T08:45:21.813Z,99978.79
2022-11-09T08:47:57.537Z,99988.20
2022-11-09T08:50:26.768Z,99994.61
2022-11-09T08:52:54.704Z,99989.09
2022-11-09T08:55:23.174Z,99990.46
2022-11-09T08:57:54.887Z,99994.09
2022-11-09T09:00:23.228Z,99998.27
2022-11-09T09:02:50.945Z,99999.77
2022-11-09T09:05:18.823Z,99996.09
2022-11-09T09:07:46.620Z,99994.88
2022-11-09T09:10:14.490Z,99993.98
2022-11-09T09:12:42.280Z,99997.88
2022-11-09T09:15:10.209Z,100001.65
2022-11-09T09:17:38.131Z,100009.70
2022-11-09T09:20:06.518Z,100012.30
2022-11-09T09:22:34.468Z,100010.93
2022-11-09T09:25:02.717Z,100010.63
2022-11-09T09:27:30.873Z,100007.60
2022-11-09T09:29:58.740Z,100010.21
2022-11-09T09:32:26.656Z,100011.67
2022-11-09T09:34:54.396Z,100013.32
2022-11-09T09:37:22.572Z,100006.77
2022-11-09T09:39:50.825Z,100007.88
2022-11-09T09:42:27.753Z,100006.14
2022-11-09T09:45:08.826Z,99998.09
2022-11-09T09:47:49.178Z,100001.29
2022-11-09T09:50:38.144Z,100006.80
2022-11-09T09:53:30.803Z,100004.71
2022-11-09T09:56:31.357Z,100005.79
2022-11-09T09:59:06.108Z,100001.45
2022-11-09T10:01:37.965Z,100003.59
2022-11-09T10:04:36.879Z,100002.54
2022-11-09T10:07:15.305Z,100007.70
2022-11-09T10:10:10.361Z,100016.09
2022-11-09T10:12:47.280Z,100012.86
2022-11-09T10:15:31.851Z,100008.32
2022-11-09T10:18:08.781Z,100001.54
2022-11-09T10:20:58.683Z,100007.16
2022-11-09T10:23:49.110Z,100013.77
2022-11-09T10:26:19.191Z,100010.58
2022-11-09T10:29:15.244Z,100009.65
2022-11-09T10:31:42.870Z,100017.46
2022-11-09T10:34:18.881Z,100025.83
2022-11-09T10:36:54.269Z,100024.55
2022-11-09T10:39:25.501Z,100026.04
2022-11-09T10:42:12.300Z,100024.65
2022-11-09T10:45:00.259Z,100028.52
2022-11-09T10:47:49.117Z,100027.09
2022-11-09T10:50:38.452Z,100020.98
2022-11-09T10:53:30.077Z,100015.64
2022-11-09T10:56:21.344Z,100012.80
2022-11-09T10:59:34.434Z,100008.34
2022-11-09T11:02:26.792Z,100003.42
2022-11-09T11:05:24.183Z,100002.92
2022-11-09T11:08:24.072Z,100016.21
2022-11-09T11:11:38.326Z,100016.65
2022-11-09T11:14:36.521Z,100011.06
2022-11-09T11:17:23.867Z,100013.63
2022-11-09T11:20:31.421Z,100011.96
2022-11-09T11:23:23.964Z,100014.45
2022-11-09T11:26:22.941Z,100011.29
2022-11-09T11:29:39.412Z,100020.23
2022-11-09T11:32:25.842Z,100020.96
2022-11-09T11:35:28.136Z,100014.00
2022-11-09T11:38:26.968Z,100027.41
2022-11-09T11:41:36.476Z,100031.35
2022-11-09T11:44:41.115Z,100025.77
2022-11-09T11:47:51.264Z,100014.80
2022-11-09T11:51:13.447Z,100008.98
2022-11-09T11:54:21.203Z,100008.52
2022-11-09T11:57:10.556Z,100007.64
2022-11-09T12:00:10.880Z,100004.70
2022-11-09T12:03:26.952Z,100004.63
2022-11-09T12:06:22.885Z,99997.35
2022-11-09T12:09:18.219Z,99993.77
2022-11-09T12:12:14.798Z,100003.02
2022-11-09T12:15:23.765Z,100000.96
2022-11-09T12:18:23.051Z,99989.44
2022-11-09T12:21:47.787Z,99985.42
2022-11-09T12:25:01.890Z,99981.94
2022-11-09T12:27:57.361Z,99981.51
2022-11-09T12:31:13.332Z,99988.34
2022-11-09T12:34:23.489Z,99985.80
2022-11-09T12:37:14.395Z,99984.20
2022-11-09T12:40:15.386Z,99985.33
2022-11-09T12:43:10.582Z,99982.93
2022-11-09T12:45:59.125Z,99980.96
2022-11-09T12:48:46.279Z,99975.45
2022-11-09T12:51:34.276Z,99970.94
2022-11-09T12:54:21.068Z,99975.21
2022-11-09T12:57:14.426Z,99979.01
2022-11-09T13:00:01.620Z,99983.39
2022-11-09T13:02:58.674Z,99986.44
2022-11-09T13:05:47.679Z,99985.57
2022-11-09T13:08:34.139Z,99976.85
2022-11-09T13:11:26.151Z,99973.44
2022-11-09T13:14:22.091Z,99973.45
2022-11-09T13:17:20.920Z,99973.18
2022-11-09T13:26:49.583Z,99979.23
2022-11-09T13:29:39.134Z,99983.80
2022-11-09T13:35:39.736Z,99989.34
2022-11-09T13:38:30.454Z,99986.48
2022-11-09T13:41:29.204Z,99985.84
2022-11-09T13:44:32.863Z,99983.02
2022-11-09T13:47:39.681Z,99982.31
2022-11-09T13:50:56.333Z,99989.54
2022-11-09T13:54:35.558Z,99986.39
2022-11-09T14:11:17.127Z,100007.02
2022-11-09T14:14:48.172Z,100006.17
2022-11-09T14:29:45.653Z,99984.45
2022-11-09T14:32:48.717Z,99990.35
2022-11-09T14:35:36.950Z,99995.95
2022-11-09T14:38:37.373Z,99999.61
2022-11-09T14:41:27.636Z,99994.54
2022-11-09T14:44:25.803Z,99993.77
2022-11-09T14:47:19.512Z,99994.60
2022-11-09T14:50:12.572Z,99991.61
2022-11-09T14:53:01.495Z,100001.02
2022-11-09T14:55:53.595Z,100009.05
2022-11-09T14:58:42.600Z,100008.34
2022-11-09T15:01:29.164Z,99995.46
2022-11-09T15:04:22.801Z,99992.42
2022-11-09T15:07:21.930Z,99999.96
2022-11-09T15:10:20.756Z,99994.60
2022-11-09T15:13:10.353Z,99999.91
2022-11-09T15:16:41.142Z,99993.13
2022-11-09T15:20:15.769Z,99984.78
2022-11-09T15:23:06.148Z,99984.29
2022-11-09T15:25:56.186Z,99991.13
2022-11-09T15:28:53.942Z,99990.81
2022-11-09T15:32:02.233Z,99998.72
2022-11-09T15:34:50.893Z,99999.40
2022-11-09T15:37:37.696Z,100000.11
2022-11-09T15:40:27.377Z,99999.46
2022-11-09T15:43:13.859Z,99997.00
2022-11-09T15:46:01.430Z,99991.84
2022-11-09T15:48:48.239Z,99999.20
2022-11-09T15:51:41.957Z,100007.71
2022-11-09T15:54:35.946Z,100013.45
2022-11-09T15:57:24.304Z,100015.05
2022-11-09T16:00:20.823Z,100023.95
2022-11-09T16:03:13.209Z,100026.16
2022-11-09T16:05:59.804Z,100019.30
2022-11-09T16:08:48.724Z,100016.88
2022-11-09T16:11:35.719Z,100022.07
2022-11-09T16:14:22.997Z,100026.12
2022-11-09T16:17:10.528Z,100028.14
2022-11-09T16:19:58.357Z,100024.71
2022-11-09T16:22:45.329Z,100024.28
2022-11-09T16:25:32.028Z,100024.80
2022-11-09T16:28:20.816Z,100019.39
2022-11-09T16:31:08.042Z,100028.76
2022-11-09T16:33:55.070Z,100032.63
2022-11-09T16:36:46.569Z,100028.38
2022-11-09T16:39:36.703Z,100032.73
2022-11-09T16:42:28.803Z,100038.05
2022-11-09T16:45:16.372Z,100034.34
2022-11-09T16:48:08.645Z,100042.73
2022-11-09T16:50:56.053Z,100043.02
2022-11-09T16:53:43.230Z,100041.59
2022-11-09T16:56:32.898Z,100049.70
2022-11-09T16:59:23.148Z,100043.64
2022-11-09T17:02:09.682Z,100040.96
2022-11-09T17:04:57.921Z,100048.91
2022-11-09T17:07:49.922Z,100047.34
2022-11-09T17:10:46.715Z,100046.87
2022-11-09T17:14:15.484Z,100046.28
2022-11-09T17:17:05.597Z,100045.31
2022-11-09T17:20:12.735Z,100048.16
2022-11-09T17:23:02.803Z,100041.39
2022-11-09T17:26:29.721Z,100048.27
2022-11-09T17:30:11.217Z,100049.98
2022-11-09T17:33:12.092Z,100054.27
2022-11-09T17:36:15.184Z,100060.59
2022-11-09T17:39:06.420Z,100059.77
2022-11-09T17:41:55.744Z,100055.23
2022-11-09T17:45:17.406Z,100062.70
2022-11-09T17:48:11.924Z,100071.38
2022-11-09T17:50:59.255Z,100068.55
2022-11-09T17:54:36.509Z,100071.58
2022-11-09T17:57:24.475Z,100070.23
2022-11-09T18:00:16.339Z,100074.06
2022-11-09T18:03:03.207Z,100076.95
2022-11-09T18:05:51.473Z,100077.45
2022-11-09T18:08:42.331Z,100079.73
2022-11-09T18:11:44.394Z,100080.11
2022-11-09T18:14:37.172Z,100083.58
2022-11-09T18:17:24.106Z,100088.02
2022-11-09T18:20:30.890Z,100085.39
2022-11-09T18:23:28.061Z,100089.80
2022-11-09T18:26:21.820Z,100092.30
2022-11-09T18:29:09.515Z,100093.87
2022-11-09T18:31:56.318Z,100091.85
2022-11-09T18:35:26.631Z,100095.73
2022-11-09T18:38:20.023Z,100093.05
2022-11-09T18:41:17.761Z,100094.42
2022-11-09T18:44:05.967Z,100093.88
2022-11-09T18:46:52.791Z,100100.31
2022-11-09T18:49:43.030Z,100096.22
2022-11-09T18:52:38.592Z,100098.04
2022-11-09T18:55:30.278Z,100098.81
2022-11-09T18:58:28.880Z,100102.71
2022-11-09T19:01:34.973Z,100102.17
2022-11-09T19:07:32.366Z,100113.23
2022-11-09T19:10:35.026Z,100112.81
2022-11-09T19:13:25.173Z,100111.83
2022-11-09T19:16:20.462Z,100115.05
2022-11-09T19:19:25.220Z,100115.36
2022-11-09T19:22:43.444Z,100120.48
2022-11-09T19:25:38.922Z,100125.00
2022-11-09T19:28:38.901Z,100121.91
2022-11-09T19:31:37.254Z,100122.27
2022-11-09T19:34:26.940Z,100125.05
2022-11-09T19:37:22.886Z,100126.83
2022-11-09T19:40:18.393Z,100127.20
2022-11-09T19:43:11.950Z,100122.35
2022-11-09T19:45:58.583Z,100119.86
2022-11-09T19:48:46.470Z,100127.34
2022-11-09T19:51:36.305Z,100127.48
2022-11-09T19:54:23.270Z,100128.38
2022-11-09T19:57:10.016Z,100132.34
2022-11-09T19:59:56.829Z,100136.12
2022-11-09T20:02:43.265Z,100135.80
2022-11-09T20:05:32.597Z,100138.87
2022-11-09T20:08:19.109Z,100140.95
2022-11-09T20:11:07.732Z,100143.13
2022-11-09T20:13:54.051Z,100139.95
2022-11-09T20:16:41.979Z,100143.34
2022-11-09T20:19:28.403Z,100139.93
2022-11-09T20:22:15.220Z,100140.36
2022-11-09T20:25:03.879Z,100135.34
2022-11-09T20:27:50.383Z,100139.09
2022-11-09T20:30:39.725Z,100142.82
2022-11-09T20:33:27.088Z,100145.30
2022-11-09T20:36:13.620Z,100150.06
2022-11-09T20:39:00.066Z,100151.35
2022-11-09T20:41:48.665Z,100145.84
2022-11-09T20:44:34.891Z,100148.90
2022-11-09T20:47:42.110Z,100144.25
2022-11-09T20:50:27.903Z,100148.09
2022-11-09T20:53:15.039Z,100146.70
2022-11-09T20:56:01.632Z,100151.53
2022-11-09T20:58:48.129Z,100154.75
2022-11-09T21:01:35.029Z,100160.09
2022-11-09T21:04:21.540Z,100154.29
2022-11-09T21:07:09.314Z,100152.70
2022-11-09T21:09:57.073Z,100153.51
2022-11-09T21:12:43.452Z,100154.08
2022-11-09T21:15:30.148Z,100151.39
2022-11-09T21:18:16.802Z,100160.08
2022-11-09T21:21:08.543Z,100161.71
2022-11-09T21:24:14.740Z,100167.33
2022-11-09T21:27:19.457Z,100167.83
2022-11-09T21:30:07.580Z,100177.00
2022-11-09T21:32:54.714Z,100178.06
2022-11-09T21:35:41.342Z,100182.45
2022-11-09T21:38:27.864Z,100187.39
2022-11-09T21:41:32.872Z,100184.14
2022-11-09T21:44:19.511Z,100177.90
2022-11-09T21:52:23.591Z,100185.69
2022-11-09T21:55:10.050Z,100187.50
2022-11-09T21:57:56.525Z,100188.52
2022-11-09T22:00:42.989Z,100187.69
2022-11-09T22:03:29.561Z,100188.90
2022-11-09T22:06:16.294Z,100190.91
2022-11-09T22:09:03.799Z,100193.02
2022-11-09T22:12:08.762Z,100196.25
2022-11-09T22:15:14.337Z,100198.95
2022-11-09T22:18:01.208Z,100203.23
2022-11-09T22:20:56.953Z,100204.02
2022-11-09T22:23:43.239Z,100206.61
2022-11-09T22:26:31.216Z,100211.58
2022-11-09T22:29:21.212Z,100213.76
2022-11-09T22:32:07.443Z,100218.98
2022-11-09T22:34:53.765Z,100220.27
2022-11-09T22:37:40.600Z,100220.73
2022-11-09T22:40:26.898Z,100223.79
2022-11-09T22:43:13.641Z,100225.50
2022-11-09T22:46:08.441Z,100224.61
2022-11-09T22:48:54.858Z,100226.83
2022-11-09T22:51:41.372Z,100229.66
2022-11-09T22:54:28.132Z,100235.40
2022-11-09T22:57:14.591Z,100230.25
2022-11-09T23:00:01.225Z,100232.34
2022-11-09T23:02:47.917Z,100235.41
2022-11-09T23:05:34.257Z,100236.06
2022-11-09T23:08:20.414Z,100237.48
2022-11-09T23:11:12.528Z,100239.85
2022-11-09T23:13:58.908Z,100242.30
2022-11-09T23:16:45.411Z,100240.70
2022-11-09T23:19:31.995Z,100238.65
2022-11-09T23:22:18.400Z,100240.52
2022-11-09T23:25:23.806Z,100245.52
2022-11-09T23:28:12.927Z,100248.31
2022-11-09T23:31:00.739Z,100249.28
2022-11-09T23:33:47.864Z,100246.89
2022-11-09T23:36:34.290Z,100249.73
2022-11-09T23:39:20.929Z,100252.35
2022-11-09T23:42:07.052Z,100256.08
2022-11-09T23:44:53.570Z,100258.52
2022-11-09T23:47:40.001Z,100259.88
2022-11-09T23:50:26.372Z,100264.52
2022-11-09T23:53:13.806Z,100265.55
2022-11-09T23:56:01.940Z,100268.25
2022-11-09T23:58:51.550Z,100268.78
